sensor_id;sensor_type;location;lat;lon;timestamp;P1;durP1;ratioP1;P2;durP2;ratioP2
35312;SDS011;21425;50.454;30.466;2023-06-22T00:01:15;9.60;;;6.85;;
35312;SDS011;21425;50.454;30.466;2023-06-22T00:03:41;12.23;;;7.25;;
35312;SDS011;21425;50.454;30.466;2023-06-22T00:06:07;9.85;;;6.90;;
35312;SDS011;21425;50.454;30.466;2023-06-22T00:08:33;11.98;;;7.55;;
35312;SDS011;21425;50.454;30.466;2023-06-22T00:10:59;10.30;;;7.10;;
35312;SDS011;21425;50.454;30.466;2023-06-22T00:13:25;15.18;;;7.50;;
35312;SDS011;21425;50.454;30.466;2023-06-22T00:15:51;9.75;;;6.70;;
35312;SDS011;21425;50.454;30.466;2023-06-22T00:18:16;11.23;;;7.10;;
35312;SDS011;21425;50.454;30.466;2023-06-22T00:20:43;13.88;;;8.35;;
35312;SDS011;21425;50.454;30.466;2023-06-22T00:23:10;11.90;;;8.50;;
35312;SDS011;21425;50.454;30.466;2023-06-22T00:25:37;12.55;;;8.75;;
35312;SDS011;21425;50.454;30.466;2023-06-22T00:28:03;13.43;;;8.45;;
35312;SDS011;21425;50.454;30.466;2023-06-22T00:30:30;12.60;;;8.73;;
35312;SDS011;21425;50.454;30.466;2023-06-22T00:32:56;12.07;;;7.97;;
35312;SDS011;21425;50.454;30.466;2023-06-22T00:35:23;11.20;;;8.00;;
35312;SDS011;21425;50.454;30.466;2023-06-22T00:37:53;9.00;;;6.30;;
35312;SDS011;21425;50.454;30.466;2023-06-22T00:40:25;10.32;;;6.13;;
35312;SDS011;21425;50.454;30.466;2023-06-22T00:42:51;10.05;;;6.03;;
35312;SDS011;21425;50.454;30.466;2023-06-22T00:45:16;9.73;;;5.57;;
35312;SDS011;21425;50.454;30.466;2023-06-22T00:47:42;11.32;;;6.03;;
35312;SDS011;21425;50.454;30.466;2023-06-22T00:50:09;10.63;;;6.90;;
35312;SDS011;21425;50.454;30.466;2023-06-22T00:52:43;9.25;;;6.35;;
35312;SDS011;21425;50.454;30.466;2023-06-22T00:55:11;9.93;;;6.05;;
35312;SDS011;21425;50.454;30.466;2023-06-22T00:57:37;10.73;;;5.78;;
35312;SDS011;21425;50.454;30.466;2023-06-22T01:00:03;11.07;;;6.57;;
35312;SDS011;21425;50.454;30.466;2023-06-22T01:02:34;8.18;;;5.63;;
35312;SDS011;21425;50.454;30.466;2023-06-22T01:05:01;9.18;;;6.60;;
35312;SDS011;21425;50.454;30.466;2023-06-22T01:07:51;10.02;;;7.68;;
35312;SDS011;21425;50.454;30.466;2023-06-22T01:13:20;13.18;;;7.60;;
35312;SDS011;21425;50.454;30.466;2023-06-22T01:15:55;12.15;;;7.53;;
35312;SDS011;21425;50.454;30.466;2023-06-22T01:18:42;13.07;;;8.02;;
35312;SDS011;21425;50.454;30.466;2023-06-22T01:21:11;16.33;;;8.60;;
35312;SDS011;21425;50.454;30.466;2023-06-22T01:23:48;14.30;;;7.18;;
35312;SDS011;21425;50.454;30.466;2023-06-22T01:26:47;11.52;;;7.35;;
35312;SDS011;21425;50.454;30.466;2023-06-22T01:29:19;11.35;;;7.38;;
35312;SDS011;21425;50.454;30.466;2023-06-22T01:31:46;10.23;;;6.70;;
35312;SDS011;21425;50.454;30.466;2023-06-22T01:34:14;10.13;;;7.25;;
35312;SDS011;21425;50.454;30.466;2023-06-22T01:36:40;10.38;;;6.75;;
35312;SDS011;21425;50.454;30.466;2023-06-22T01:39:07;11.23;;;6.75;;
35312;SDS011;21425;50.454;30.466;2023-06-22T01:41:37;10.77;;;6.88;;
35312;SDS011;21425;50.454;30.466;2023-06-22T01:44:06;9.32;;;6.57;;
35312;SDS011;21425;50.454;30.466;2023-06-22T01:46:36;13.48;;;6.50;;
35312;SDS011;21425;50.454;30.466;2023-06-22T01:49:03;8.82;;;6.15;;
35312;SDS011;21425;50.454;30.466;2023-06-22T01:51:30;8.25;;;6.13;;
35312;SDS011;21425;50.454;30.466;2023-06-22T01:53:56;9.93;;;6.10;;
35312;SDS011;21425;50.454;30.466;2023-06-22T01:56:22;11.23;;;7.38;;
35312;SDS011;21425;50.454;30.466;2023-06-22T01:58:50;10.13;;;6.60;;
35312;SDS011;21425;50.454;30.466;2023-06-22T02:01:18;9.77;;;6.07;;
35312;SDS011;21425;50.454;30.466;2023-06-22T02:04:03;9.55;;;6.43;;
35312;SDS011;21425;50.454;30.466;2023-06-22T02:06:35;8.77;;;5.95;;
35312;SDS011;21425;50.454;30.466;2023-06-22T02:09:06;8.68;;;5.70;;
35312;SDS011;21425;50.454;30.466;2023-06-22T02:11:34;10.55;;;6.47;;
35312;SDS011;21425;50.454;30.466;2023-06-22T02:14:01;12.23;;;6.57;;
35312;SDS011;21425;50.454;30.466;2023-06-22T02:16:27;12.88;;;6.47;;
35312;SDS011;21425;50.454;30.466;2023-06-22T02:18:54;11.15;;;6.57;;
35312;SDS011;21425;50.454;30.466;2023-06-22T02:21:26;10.32;;;6.88;;
35312;SDS011;21425;50.454;30.466;2023-06-22T02:23:52;11.55;;;7.93;;
35312;SDS011;21425;50.454;30.466;2023-06-22T02:26:18;15.88;;;7.55;;
35312;SDS011;21425;50.454;30.466;2023-06-22T02:28:44;12.18;;;8.43;;
35312;SDS011;21425;50.454;30.466;2023-06-22T02:31:11;12.35;;;7.25;;
35312;SDS011;21425;50.454;30.466;2023-06-22T02:33:36;10.35;;;6.63;;
35312;SDS011;21425;50.454;30.466;2023-06-22T02:36:02;12.38;;;6.25;;
35312;SDS011;21425;50.454;30.466;2023-06-22T02:38:30;7.43;;;5.65;;
35312;SDS011;21425;50.454;30.466;2023-06-22T02:40:58;10.40;;;6.13;;
35312;SDS011;21425;50.454;30.466;2023-06-22T02:43:24;9.32;;;5.78;;
35312;SDS011;21425;50.454;30.466;2023-06-22T02:45:50;8.50;;;5.90;;
35312;SDS011;21425;50.454;30.466;2023-06-22T02:48:16;10.10;;;6.25;;
35312;SDS011;21425;50.454;30.466;2023-06-22T02:50:42;11.93;;;6.85;;
35312;SDS011;21425;50.454;30.466;2023-06-22T02:53:08;11.57;;;6.70;;
35312;SDS011;21425;50.454;30.466;2023-06-22T02:55:34;11.77;;;7.20;;
35312;SDS011;21425;50.454;30.466;2023-06-22T02:58:00;12.65;;;7.53;;
35312;SDS011;21425;50.454;30.466;2023-06-22T03:00:29;9.13;;;6.72;;
35312;SDS011;21425;50.454;30.466;2023-06-22T03:02:56;10.82;;;7.40;;
35312;SDS011;21425;50.454;30.466;2023-06-22T03:05:22;11.07;;;6.78;;
35312;SDS011;21425;50.454;30.466;2023-06-22T03:07:48;11.50;;;6.32;;
35312;SDS011;21425;50.454;30.466;2023-06-22T03:10:14;10.43;;;6.97;;
35312;SDS011;21425;50.454;30.466;2023-06-22T03:12:41;10.55;;;6.82;;
35312;SDS011;21425;50.454;30.466;2023-06-22T03:15:08;10.90;;;8.02;;
35312;SDS011;21425;50.454;30.466;2023-06-22T03:17:35;12.75;;;7.45;;
35312;SDS011;21425;50.454;30.466;2023-06-22T03:20:01;16.02;;;8.77;;
35312;SDS011;21425;50.454;30.466;2023-06-22T03:22:33;14.73;;;7.73;;
35312;SDS011;21425;50.454;30.466;2023-06-22T03:24:59;10.95;;;7.75;;
35312;SDS011;21425;50.454;30.466;2023-06-22T03:27:25;10.68;;;7.50;;
35312;SDS011;21425;50.454;30.466;2023-06-22T03:29:50;12.20;;;8.50;;
35312;SDS011;21425;50.454;30.466;2023-06-22T03:32:16;14.25;;;9.05;;
35312;SDS011;21425;50.454;30.466;2023-06-22T03:34:42;11.95;;;8.50;;
35312;SDS011;21425;50.454;30.466;2023-06-22T03:37:11;15.68;;;9.80;;
35312;SDS011;21425;50.454;30.466;2023-06-22T03:39:37;15.57;;;8.85;;
35312;SDS011;21425;50.454;30.466;2023-06-22T03:42:04;13.82;;;8.63;;
35312;SDS011;21425;50.454;30.466;2023-06-22T03:44:30;15.88;;;9.98;;
35312;SDS011;21425;50.454;30.466;2023-06-22T03:46:56;15.30;;;9.43;;
35312;SDS011;21425;50.454;30.466;2023-06-22T03:49:21;16.02;;;9.65;;
35312;SDS011;21425;50.454;30.466;2023-06-22T03:51:47;16.35;;;9.73;;
35312;SDS011;21425;50.454;30.466;2023-06-22T03:54:13;13.02;;;9.05;;
35312;SDS011;21425;50.454;30.466;2023-06-22T03:56:39;19.33;;;9.88;;
35312;SDS011;21425;50.454;30.466;2023-06-22T03:59:04;14.57;;;9.38;;
35312;SDS011;21425;50.454;30.466;2023-06-22T04:01:30;12.60;;;9.93;;
35312;SDS011;21425;50.454;30.466;2023-06-22T04:03:56;13.88;;;9.82;;
35312;SDS011;21425;50.454;30.466;2023-06-22T04:06:22;17.65;;;9.57;;
35312;SDS011;21425;50.454;30.466;2023-06-22T04:08:48;15.60;;;9.63;;
35312;SDS011;21425;50.454;30.466;2023-06-22T04:11:16;18.23;;;10.25;;
35312;SDS011;21425;50.454;30.466;2023-06-22T04:13:43;15.07;;;10.05;;
35312;SDS011;21425;50.454;30.466;2023-06-22T04:16:09;17.70;;;10.45;;
35312;SDS011;21425;50.454;30.466;2023-06-22T04:18:35;17.92;;;10.57;;
35312;SDS011;21425;50.454;30.466;2023-06-22T04:21:01;13.30;;;10.13;;
35312;SDS011;21425;50.454;30.466;2023-06-22T04:23:27;12.45;;;9.60;;
35312;SDS011;21425;50.454;30.466;2023-06-22T04:25:53;14.20;;;9.35;;
35312;SDS011;21425;50.454;30.466;2023-06-22T04:28:21;17.30;;;11.05;;
35312;SDS011;21425;50.454;30.466;2023-06-22T04:30:47;18.27;;;10.68;;
35312;SDS011;21425;50.454;30.466;2023-06-22T04:33:14;15.43;;;10.88;;
35312;SDS011;21425;50.454;30.466;2023-06-22T04:35:40;19.27;;;12.05;;
35312;SDS011;21425;50.454;30.466;2023-06-22T04:38:09;19.85;;;11.50;;
35312;SDS011;21425;50.454;30.466;2023-06-22T04:40:38;15.48;;;10.60;;
35312;SDS011;21425;50.454;30.466;2023-06-22T04:43:04;19.05;;;11.93;;
35312;SDS011;21425;50.454;30.466;2023-06-22T04:45:31;29.33;;;13.38;;
35312;SDS011;21425;50.454;30.466;2023-06-22T04:47:57;17.10;;;10.90;;
35312;SDS011;21425;50.454;30.466;2023-06-22T04:50:23;24.35;;;13.57;;
35312;SDS011;21425;50.454;30.466;2023-06-22T04:52:50;19.42;;;12.05;;
35312;SDS011;21425;50.454;30.466;2023-06-22T04:55:16;24.08;;;12.90;;
35312;SDS011;21425;50.454;30.466;2023-06-22T04:57:47;20.50;;;12.48;;
35312;SDS011;21425;50.454;30.466;2023-06-22T05:00:22;23.08;;;13.00;;
35312;SDS011;21425;50.454;30.466;2023-06-22T05:02:48;21.23;;;12.77;;
35312;SDS011;21425;50.454;30.466;2023-06-22T05:05:15;28.75;;;14.45;;
35312;SDS011;21425;50.454;30.466;2023-06-22T05:07:45;19.33;;;12.27;;
35312;SDS011;21425;50.454;30.466;2023-06-22T05:10:13;20.73;;;13.07;;
35312;SDS011;21425;50.454;30.466;2023-06-22T05:12:40;19.50;;;12.90;;
35312;SDS011;21425;50.454;30.466;2023-06-22T05:15:06;20.08;;;12.88;;
35312;SDS011;21425;50.454;30.466;2023-06-22T05:17:33;18.13;;;12.73;;
35312;SDS011;21425;50.454;30.466;2023-06-22T05:19:59;26.20;;;13.40;;
35312;SDS011;21425;50.454;30.466;2023-06-22T05:22:24;18.33;;;12.23;;
35312;SDS011;21425;50.454;30.466;2023-06-22T05:24:50;22.73;;;13.02;;
35312;SDS011;21425;50.454;30.466;2023-06-22T05:27:16;21.35;;;14.23;;
35312;SDS011;21425;50.454;30.466;2023-06-22T05:29:42;21.40;;;11.85;;
35312;SDS011;21425;50.454;30.466;2023-06-22T05:32:08;16.27;;;11.30;;
35312;SDS011;21425;50.454;30.466;2023-06-22T05:34:34;17.60;;;11.95;;
35312;SDS011;21425;50.454;30.466;2023-06-22T05:37:00;17.98;;;11.50;;
35312;SDS011;21425;50.454;30.466;2023-06-22T05:39:26;19.05;;;11.68;;
35312;SDS011;21425;50.454;30.466;2023-06-22T05:41:52;21.08;;;10.88;;
35312;SDS011;21425;50.454;30.466;2023-06-22T05:44:18;18.45;;;11.15;;
35312;SDS011;21425;50.454;30.466;2023-06-22T05:46:44;18.30;;;11.80;;
35312;SDS011;21425;50.454;30.466;2023-06-22T05:49:11;17.08;;;11.18;;
35312;SDS011;21425;50.454;30.466;2023-06-22T05:51:37;14.93;;;9.90;;
35312;SDS011;21425;50.454;30.466;2023-06-22T05:54:03;15.98;;;10.10;;
35312;SDS011;21425;50.454;30.466;2023-06-22T05:56:29;15.88;;;9.50;;
35312;SDS011;21425;50.454;30.466;2023-06-22T05:58:55;14.50;;;8.93;;
35312;SDS011;21425;50.454;30.466;2023-06-22T06:01:21;16.90;;;10.75;;
35312;SDS011;21425;50.454;30.466;2023-06-22T06:03:47;14.68;;;9.82;;
35312;SDS011;21425;50.454;30.466;2023-06-22T06:06:14;17.17;;;10.63;;
35312;SDS011;21425;50.454;30.466;2023-06-22T06:08:40;14.63;;;10.40;;
35312;SDS011;21425;50.454;30.466;2023-06-22T06:11:06;17.15;;;10.27;;
35312;SDS011;21425;50.454;30.466;2023-06-22T06:13:32;17.17;;;11.07;;
35312;SDS011;21425;50.454;30.466;2023-06-22T06:15:58;16.92;;;11.60;;
35312;SDS011;21425;50.454;30.466;2023-06-22T06:18:24;23.67;;;12.43;;
35312;SDS011;21425;50.454;30.466;2023-06-22T06:20:50;20.13;;;12.05;;
35312;SDS011;21425;50.454;30.466;2023-06-22T06:23:16;19.30;;;12.63;;
35312;SDS011;21425;50.454;30.466;2023-06-22T06:25:42;30.10;;;13.68;;
35312;SDS011;21425;50.454;30.466;2023-06-22T06:28:08;28.02;;;14.45;;
35312;SDS011;21425;50.454;30.466;2023-06-22T06:30:33;28.30;;;14.65;;
35312;SDS011;21425;50.454;30.466;2023-06-22T06:33:02;23.77;;;14.18;;
35312;SDS011;21425;50.454;30.466;2023-06-22T06:35:29;32.38;;;15.90;;
35312;SDS011;21425;50.454;30.466;2023-06-22T06:37:55;27.35;;;13.57;;
35312;SDS011;21425;50.454;30.466;2023-06-22T06:40:21;25.02;;;12.70;;
35312;SDS011;21425;50.454;30.466;2023-06-22T06:42:48;22.00;;;12.38;;
35312;SDS011;21425;50.454;30.466;2023-06-22T06:45:20;22.08;;;11.55;;
35312;SDS011;21425;50.454;30.466;2023-06-22T06:47:47;17.73;;;11.52;;
35312;SDS011;21425;50.454;30.466;2023-06-22T06:50:13;18.80;;;10.73;;
35312;SDS011;21425;50.454;30.466;2023-06-22T06:52:39;17.73;;;11.13;;
35312;SDS011;21425;50.454;30.466;2023-06-22T06:55:06;17.50;;;10.63;;
35312;SDS011;21425;50.454;30.466;2023-06-22T06:57:35;19.05;;;10.82;;
35312;SDS011;21425;50.454;30.466;2023-06-22T07:00:02;18.55;;;9.77;;
35312;SDS011;21425;50.454;30.466;2023-06-22T07:02:34;14.90;;;9.75;;
35312;SDS011;21425;50.454;30.466;2023-06-22T07:05:00;20.15;;;10.27;;
35312;SDS011;21425;50.454;30.466;2023-06-22T07:07:29;14.90;;;8.98;;
35312;SDS011;21425;50.454;30.466;2023-06-22T07:09:54;14.70;;;9.65;;
35312;SDS011;21425;50.454;30.466;2023-06-22T07:12:20;11.60;;;9.40;;
35312;SDS011;21425;50.454;30.466;2023-06-22T07:14:46;16.33;;;10.10;;
35312;SDS011;21425;50.454;30.466;2023-06-22T07:17:13;17.35;;;9.77;;
35312;SDS011;21425;50.454;30.466;2023-06-22T07:19:39;17.02;;;9.55;;
35312;SDS011;21425;50.454;30.466;2023-06-22T07:22:05;12.93;;;8.85;;
35312;SDS011;21425;50.454;30.466;2023-06-22T07:24:31;14.68;;;9.80;;
35312;SDS011;21425;50.454;30.466;2023-06-22T07:26:57;15.15;;;10.32;;
35312;SDS011;21425;50.454;30.466;2023-06-22T07:29:24;13.48;;;9.55;;
35312;SDS011;21425;50.454;30.466;2023-06-22T07:31:50;13.40;;;9.15;;
35312;SDS011;21425;50.454;30.466;2023-06-22T07:34:16;13.60;;;9.10;;
35312;SDS011;21425;50.454;30.466;2023-06-22T07:36:43;15.32;;;10.45;;
35312;SDS011;21425;50.454;30.466;2023-06-22T07:39:09;14.00;;;9.57;;
35312;SDS011;21425;50.454;30.466;2023-06-22T07:41:35;12.70;;;9.68;;
35312;SDS011;21425;50.454;30.466;2023-06-22T07:44:02;16.05;;;9.60;;
35312;SDS011;21425;50.454;30.466;2023-06-22T07:46:28;14.48;;;9.68;;
35312;SDS011;21425;50.454;30.466;2023-06-22T07:48:55;15.52;;;9.73;;
35312;SDS011;21425;50.454;30.466;2023-06-22T07:51:21;14.27;;;9.68;;
35312;SDS011;21425;50.454;30.466;2023-06-22T07:53:47;13.40;;;9.70;;
35312;SDS011;21425;50.454;30.466;2023-06-22T07:56:13;14.02;;;9.07;;
35312;SDS011;21425;50.454;30.466;2023-06-22T07:58:43;15.60;;;10.15;;
35312;SDS011;21425;50.454;30.466;2023-06-22T08:01:09;11.63;;;9.50;;
35312;SDS011;21425;50.454;30.466;2023-06-22T08:03:36;12.82;;;8.60;;
35312;SDS011;21425;50.454;30.466;2023-06-22T08:06:02;13.30;;;9.30;;
35312;SDS011;21425;50.454;30.466;2023-06-22T08:08:29;13.80;;;9.00;;
35312;SDS011;21425;50.454;30.466;2023-06-22T08:10:56;10.63;;;8.63;;
35312;SDS011;21425;50.454;30.466;2023-06-22T08:13:22;13.63;;;9.45;;
35312;SDS011;21425;50.454;30.466;2023-06-22T08:15:48;13.85;;;9.50;;
35312;SDS011;21425;50.454;30.466;2023-06-22T08:18:15;13.52;;;10.40;;
35312;SDS011;21425;50.454;30.466;2023-06-22T08:20:41;14.60;;;10.27;;
35312;SDS011;21425;50.454;30.466;2023-06-22T08:23:07;13.93;;;9.70;;
35312;SDS011;21425;50.454;30.466;2023-06-22T08:25:33;14.63;;;10.45;;
35312;SDS011;21425;50.454;30.466;2023-06-22T08:28:00;15.15;;;10.35;;
35312;SDS011;21425;50.454;30.466;2023-06-22T08:30:26;14.10;;;9.68;;
35312;SDS011;21425;50.454;30.466;2023-06-22T08:32:52;14.25;;;9.50;;
35312;SDS011;21425;50.454;30.466;2023-06-22T08:35:19;15.00;;;10.85;;
35312;SDS011;21425;50.454;30.466;2023-06-22T08:37:45;12.70;;;9.65;;
35312;SDS011;21425;50.454;30.466;2023-06-22T08:40:16;15.32;;;9.27;;
35312;SDS011;21425;50.454;30.466;2023-06-22T08:42:42;13.38;;;9.75;;
35312;SDS011;21425;50.454;30.466;2023-06-22T08:45:08;18.58;;;9.80;;
35312;SDS011;21425;50.454;30.466;2023-06-22T08:47:34;18.48;;;9.27;;
35312;SDS011;21425;50.454;30.466;2023-06-22T08:50:00;11.20;;;8.07;;
35312;SDS011;21425;50.454;30.466;2023-06-22T08:52:28;11.02;;;8.80;;
35312;SDS011;21425;50.454;30.466;2023-06-22T08:54:54;22.33;;;9.88;;
35312;SDS011;21425;50.454;30.466;2023-06-22T08:57:20;13.40;;;8.20;;
35312;SDS011;21425;50.454;30.466;2023-06-22T08:59:46;10.15;;;8.05;;
35312;SDS011;21425;50.454;30.466;2023-06-22T09:02:12;14.93;;;9.48;;
35312;SDS011;21425;50.454;30.466;2023-06-22T09:04:38;12.00;;;9.00;;
35312;SDS011;21425;50.454;30.466;2023-06-22T09:07:04;12.40;;;9.25;;
35312;SDS011;21425;50.454;30.466;2023-06-22T09:09:30;14.32;;;8.80;;
35312;SDS011;21425;50.454;30.466;2023-06-22T09:11:56;12.35;;;8.82;;
35312;SDS011;21425;50.454;30.466;2023-06-22T09:14:22;11.27;;;8.88;;
35312;SDS011;21425;50.454;30.466;2023-06-22T09:16:47;10.73;;;8.80;;
35312;SDS011;21425;50.454;30.466;2023-06-22T09:19:13;16.70;;;8.25;;
35312;SDS011;21425;50.454;30.466;2023-06-22T09:21:39;11.48;;;8.25;;
35312;SDS011;21425;50.454;30.466;2023-06-22T09:24:05;12.80;;;8.60;;
35312;SDS011;21425;50.454;30.466;2023-06-22T09:26:31;12.52;;;7.82;;
35312;SDS011;21425;50.454;30.466;2023-06-22T09:28:57;13.50;;;7.93;;
35312;SDS011;21425;50.454;30.466;2023-06-22T09:31:23;8.85;;;7.88;;
35312;SDS011;21425;50.454;30.466;2023-06-22T09:33:55;11.30;;;7.97;;
35312;SDS011;21425;50.454;30.466;2023-06-22T09:36:21;10.68;;;8.00;;
35312;SDS011;21425;50.454;30.466;2023-06-22T09:38:47;12.10;;;8.10;;
35312;SDS011;21425;50.454;30.466;2023-06-22T09:41:14;11.82;;;7.88;;
35312;SDS011;21425;50.454;30.466;2023-06-22T09:43:40;11.35;;;7.28;;
35312;SDS011;21425;50.454;30.466;2023-06-22T09:46:06;10.07;;;7.75;;
35312;SDS011;21425;50.454;30.466;2023-06-22T09:48:34;10.90;;;8.32;;
35312;SDS011;21425;50.454;30.466;2023-06-22T09:51:00;11.95;;;8.60;;
35312;SDS011;21425;50.454;30.466;2023-06-22T09:53:26;12.48;;;8.02;;
35312;SDS011;21425;50.454;30.466;2023-06-22T09:55:53;9.93;;;8.35;;
35312;SDS011;21425;50.454;30.466;2023-06-22T09:58:19;13.02;;;8.07;;
35312;SDS011;21425;50.454;30.466;2023-06-22T10:00:45;11.30;;;8.55;;
35312;SDS011;21425;50.454;30.466;2023-06-22T10:03:11;17.13;;;8.05;;
35312;SDS011;21425;50.454;30.466;2023-06-22T10:05:37;11.95;;;8.50;;
35312;SDS011;21425;50.454;30.466;2023-06-22T10:08:03;11.15;;;7.88;;
35312;SDS011;21425;50.454;30.466;2023-06-22T10:10:30;11.05;;;8.52;;
35312;SDS011;21425;50.454;30.466;2023-06-22T10:12:56;12.02;;;8.10;;
35312;SDS011;21425;50.454;30.466;2023-06-22T10:15:23;12.10;;;7.80;;
35312;SDS011;21425;50.454;30.466;2023-06-22T10:17:49;14.98;;;9.05;;
35312;SDS011;21425;50.454;30.466;2023-06-22T10:20:15;11.27;;;8.43;;
35312;SDS011;21425;50.454;30.466;2023-06-22T10:22:44;11.48;;;8.32;;
35312;SDS011;21425;50.454;30.466;2023-06-22T10:25:10;9.88;;;7.70;;
35312;SDS011;21425;50.454;30.466;2023-06-22T10:27:38;9.27;;;8.07;;
35312;SDS011;21425;50.454;30.466;2023-06-22T10:30:10;12.07;;;8.02;;
35312;SDS011;21425;50.454;30.466;2023-06-22T10:32:39;16.20;;;8.77;;
35312;SDS011;21425;50.454;30.466;2023-06-22T10:35:05;12.50;;;7.90;;
35312;SDS011;21425;50.454;30.466;2023-06-22T10:37:32;12.73;;;8.50;;
35312;SDS011;21425;50.454;30.466;2023-06-22T10:39:58;12.02;;;8.75;;
35312;SDS011;21425;50.454;30.466;2023-06-22T10:42:24;12.60;;;8.70;;
35312;SDS011;21425;50.454;30.466;2023-06-22T10:44:50;10.98;;;8.55;;
35312;SDS011;21425;50.454;30.466;2023-06-22T10:47:16;10.85;;;8.35;;
35312;SDS011;21425;50.454;30.466;2023-06-22T10:49:42;10.75;;;8.00;;
35312;SDS011;21425;50.454;30.466;2023-06-22T10:52:08;9.60;;;7.88;;
35312;SDS011;21425;50.454;30.466;2023-06-22T10:54:37;10.27;;;6.70;;
35312;SDS011;21425;50.454;30.466;2023-06-22T10:57:03;9.30;;;7.03;;
35312;SDS011;21425;50.454;30.466;2023-06-22T10:59:29;10.02;;;6.53;;
35312;SDS011;21425;50.454;30.466;2023-06-22T11:01:55;8.25;;;6.60;;
35312;SDS011;21425;50.454;30.466;2023-06-22T11:04:22;10.38;;;6.85;;
35312;SDS011;21425;50.454;30.466;2023-06-22T11:06:48;11.27;;;7.10;;
35312;SDS011;21425;50.454;30.466;2023-06-22T11:09:14;15.50;;;6.47;;
35312;SDS011;21425;50.454;30.466;2023-06-22T11:11:49;8.82;;;6.32;;
35312;SDS011;21425;50.454;30.466;2023-06-22T11:14:15;8.43;;;5.88;;
35312;SDS011;21425;50.454;30.466;2023-06-22T11:16:42;9.55;;;6.03;;
35312;SDS011;21425;50.454;30.466;2023-06-22T11:19:07;7.13;;;5.53;;
35312;SDS011;21425;50.454;30.466;2023-06-22T11:21:33;9.30;;;6.03;;
35312;SDS011;21425;50.454;30.466;2023-06-22T11:23:59;8.80;;;5.35;;
35312;SDS011;21425;50.454;30.466;2023-06-22T11:26:25;8.15;;;5.80;;
35312;SDS011;21425;50.454;30.466;2023-06-22T11:28:54;8.25;;;5.85;;
35312;SDS011;21425;50.454;30.466;2023-06-22T11:31:20;9.65;;;6.15;;
35312;SDS011;21425;50.454;30.466;2023-06-22T11:33:46;8.15;;;5.70;;
35312;SDS011;21425;50.454;30.466;2023-06-22T11:36:13;7.60;;;6.00;;
35312;SDS011;21425;50.454;30.466;2023-06-22T11:38:39;8.40;;;5.75;;
35312;SDS011;21425;50.454;30.466;2023-06-22T11:41:06;9.95;;;5.70;;
35312;SDS011;21425;50.454;30.466;2023-06-22T11:43:32;8.98;;;5.28;;
35312;SDS011;21425;50.454;30.466;2023-06-22T11:45:59;9.70;;;5.00;;
35312;SDS011;21425;50.454;30.466;2023-06-22T11:48:25;5.80;;;4.45;;
35312;SDS011;21425;50.454;30.466;2023-06-22T11:50:51;8.05;;;5.72;;
35312;SDS011;21425;50.454;30.466;2023-06-22T11:53:17;7.07;;;4.70;;
35312;SDS011;21425;50.454;30.466;2023-06-22T11:55:43;5.53;;;4.28;;
35312;SDS011;21425;50.454;30.466;2023-06-22T11:58:09;8.75;;;4.97;;
35312;SDS011;21425;50.454;30.466;2023-06-22T12:00:36;8.32;;;4.90;;
35312;SDS011;21425;50.454;30.466;2023-06-22T12:03:02;6.47;;;4.97;;
35312;SDS011;21425;50.454;30.466;2023-06-22T12:05:28;6.72;;;4.70;;
35312;SDS011;21425;50.454;30.466;2023-06-22T12:07:54;8.18;;;4.85;;
35312;SDS011;21425;50.454;30.466;2023-06-22T12:10:21;6.60;;;4.85;;
35312;SDS011;21425;50.454;30.466;2023-06-22T12:12:47;6.57;;;4.68;;
35312;SDS011;21425;50.454;30.466;2023-06-22T12:15:13;5.68;;;4.53;;
35312;SDS011;21425;50.454;30.466;2023-06-22T12:17:39;7.20;;;5.10;;
35312;SDS011;21425;50.454;30.466;2023-06-22T12:20:06;5.95;;;5.00;;
35312;SDS011;21425;50.454;30.466;2023-06-22T12:22:32;9.90;;;4.63;;
35312;SDS011;21425;50.454;30.466;2023-06-22T12:24:59;7.43;;;4.88;;
35312;SDS011;21425;50.454;30.466;2023-06-22T12:27:24;9.40;;;5.28;;
35312;SDS011;21425;50.454;30.466;2023-06-22T12:29:50;8.07;;;5.22;;
35312;SDS011;21425;50.454;30.466;2023-06-22T12:32:16;7.65;;;5.55;;
35312;SDS011;21425;50.454;30.466;2023-06-22T12:34:42;9.90;;;5.78;;
35312;SDS011;21425;50.454;30.466;2023-06-22T12:37:08;6.18;;;5.57;;
35312;SDS011;21425;50.454;30.466;2023-06-22T12:39:35;6.65;;;5.88;;
35312;SDS011;21425;50.454;30.466;2023-06-22T12:42:00;6.07;;;5.47;;
35312;SDS011;21425;50.454;30.466;2023-06-22T12:44:26;6.95;;;5.75;;
35312;SDS011;21425;50.454;30.466;2023-06-22T12:46:52;8.30;;;5.80;;
35312;SDS011;21425;50.454;30.466;2023-06-22T12:49:18;7.80;;;6.43;;
35312;SDS011;21425;50.454;30.466;2023-06-22T12:51:44;6.65;;;5.95;;
35312;SDS011;21425;50.454;30.466;2023-06-22T12:54:10;10.90;;;6.63;;
35312;SDS011;21425;50.454;30.466;2023-06-22T12:56:37;10.25;;;6.85;;
35312;SDS011;21425;50.454;30.466;2023-06-22T12:59:03;8.40;;;6.25;;
35312;SDS011;21425;50.454;30.466;2023-06-22T13:01:29;9.98;;;6.25;;
35312;SDS011;21425;50.454;30.466;2023-06-22T13:03:56;9.63;;;6.45;;
35312;SDS011;21425;50.454;30.466;2023-06-22T13:06:22;6.32;;;5.72;;
35312;SDS011;21425;50.454;30.466;2023-06-22T13:08:48;7.60;;;6.35;;
35312;SDS011;21425;50.454;30.466;2023-06-22T13:11:14;6.68;;;5.88;;
35312;SDS011;21425;50.454;30.466;2023-06-22T13:13:40;7.97;;;6.47;;
35312;SDS011;21425;50.454;30.466;2023-06-22T13:16:06;9.38;;;6.60;;
35312;SDS011;21425;50.454;30.466;2023-06-22T13:18:32;10.40;;;6.13;;
35312;SDS011;21425;50.454;30.466;2023-06-22T13:21:00;8.07;;;6.60;;
35312;SDS011;21425;50.454;30.466;2023-06-22T13:23:26;10.55;;;6.55;;
35312;SDS011;21425;50.454;30.466;2023-06-22T13:25:52;7.93;;;6.75;;
35312;SDS011;21425;50.454;30.466;2023-06-22T13:28:18;13.10;;;7.60;;
35312;SDS011;21425;50.454;30.466;2023-06-22T13:30:45;8.20;;;6.60;;
35312;SDS011;21425;50.454;30.466;2023-06-22T13:33:15;9.82;;;7.20;;
35312;SDS011;21425;50.454;30.466;2023-06-22T13:35:41;8.70;;;6.45;;
35312;SDS011;21425;50.454;30.466;2023-06-22T13:38:08;9.30;;;7.05;;
35312;SDS011;21425;50.454;30.466;2023-06-22T13:40:34;9.88;;;7.07;;
35312;SDS011;21425;50.454;30.466;2023-06-22T13:43:00;8.07;;;6.47;;
35312;SDS011;21425;50.454;30.466;2023-06-22T13:45:26;8.18;;;6.82;;
35312;SDS011;21425;50.454;30.466;2023-06-22T13:47:52;8.43;;;6.30;;
35312;SDS011;21425;50.454;30.466;2023-06-22T13:50:18;9.82;;;6.18;;
35312;SDS011;21425;50.454;30.466;2023-06-22T13:52:44;8.73;;;6.28;;
35312;SDS011;21425;50.454;30.466;2023-06-22T13:55:10;8.38;;;6.80;;
35312;SDS011;21425;50.454;30.466;2023-06-22T13:57:36;10.18;;;7.10;;
35312;SDS011;21425;50.454;30.466;2023-06-22T14:00:05;8.02;;;7.03;;
35312;SDS011;21425;50.454;30.466;2023-06-22T14:02:31;8.75;;;7.15;;
35312;SDS011;21425;50.454;30.466;2023-06-22T14:04:57;9.75;;;7.45;;
35312;SDS011;21425;50.454;30.466;2023-06-22T14:07:23;10.60;;;7.13;;
35312;SDS011;21425;50.454;30.466;2023-06-22T14:09:49;10.32;;;7.85;;
35312;SDS011;21425;50.454;30.466;2023-06-22T14:12:15;11.45;;;7.80;;
35312;SDS011;21425;50.454;30.466;2023-06-22T14:14:43;8.45;;;6.78;;
35312;SDS011;21425;50.454;30.466;2023-06-22T14:17:09;9.25;;;7.45;;
35312;SDS011;21425;50.454;30.466;2023-06-22T14:19:35;10.43;;;6.97;;
35312;SDS011;21425;50.454;30.466;2023-06-22T14:22:01;8.40;;;7.18;;
35312;SDS011;21425;50.454;30.466;2023-06-22T14:24:27;9.10;;;7.75;;